Time;durP1;ratioP1;P1;durP2;ratioP2;P2;SDS_P1;SDS_P2;PMS_P1;PMS_P2;Temp;Humidity;BMP_temperature;BMP_pressure;BME280_temperature;BME280_humidity;BME280_pressure;Samples;Min_cycle;Max_cycle;Signal;HPM_P1;HPM_P2
2023/12/13 00:01:24;;;;;;;32.20;20.47;;;5.90;94.40;;;;;;4996001;28;20184;-86
2023/12/13 00:03:50;;;;;;;30.83;21.17;;;5.90;94.40;;;;;;4995757;28;20201;-86
2023/12/13 00:06:16;;;;;;;29.20;21.37;;;5.90;94.50;;;;;;4978596;28;20206;-86
2023/12/13 00:08:41;;;;;;;27.60;20.43;;;5.90;94.60;;;;;;4978213;28;20698;-86
2023/12/13 00:11:07;;;;;;;30.80;22.37;;;5.90;94.60;;;;;;4978277;28;20188;-86
2023/12/13 00:13:33;;;;;;;29.33;21.67;;;5.90;94.70;;;;;;4995817;28;20206;-86
2023/12/13 00:16:00;;;;;;;25.87;20.93;;;5.90;94.80;;;;;;4978334;28;20232;-86
2023/12/13 00:18:25;;;;;;;29.40;21.30;;;5.80;94.90;;;;;;4995396;28;20181;-86
2023/12/13 00:20:51;;;;;;;31.00;20.37;;;5.90;95.00;;;;;;4995897;28;20178;-87
2023/12/13 00:23:16;;;;;;;27.00;20.87;;;5.80;95.00;;;;;;4994773;28;20672;-86
2023/12/13 00:25:42;;;;;;;36.67;22.70;;;5.80;95.00;;;;;;4995616;28;20257;-86
2023/12/13 00:28:07;;;;;;;32.57;21.53;;;5.80;95.10;;;;;;4978008;28;20202;-87
2023/12/13 00:30:33;;;;;;;32.43;22.17;;;5.80;95.10;;;;;;4978803;28;20221;-87
2023/12/13 00:32:59;;;;;;;34.70;22.27;;;5.80;95.10;;;;;;4978228;28;20264;-87
2023/12/13 00:35:24;;;;;;;25.30;18.57;;;5.80;95.20;;;;;;4977835;28;20240;-85
2023/12/13 00:37:50;;;;;;;28.63;18.20;;;5.80;95.20;;;;;;4996003;28;20181;-86
2023/12/13 00:40:17;;;;;;;28.93;18.33;;;5.80;95.30;;;;;;4978112;28;20197;-86
2023/12/13 00:42:43;;;;;;;30.47;21.30;;;5.80;95.30;;;;;;4977462;28;20186;-86
2023/12/13 00:45:09;;;;;;;31.13;20.43;;;5.70;95.30;;;;;;4995239;28;20177;-86
2023/12/13 00:47:34;;;;;;;30.53;18.93;;;5.70;95.30;;;;;;4977457;28;20202;-86
2023/12/13 00:50:00;;;;;;;29.70;19.23;;;5.80;95.30;;;;;;4994532;28;20216;-86
2023/12/13 00:52:26;;;;;;;26.17;18.03;;;5.70;95.40;;;;;;4995620;28;20198;-86
2023/12/13 00:54:52;;;;;;;34.50;21.57;;;5.80;95.40;;;;;;4977461;28;20174;-86
2023/12/13 00:57:17;;;;;;;32.83;22.87;;;5.80;95.40;;;;;;4977458;28;20174;-87
2023/12/13 00:59:43;;;;;;;24.30;16.47;;;5.70;95.40;;;;;;4977477;28;20704;-86
2023/12/13 01:02:08;;;;;;;29.03;18.03;;;5.70;95.50;;;;;;4994881;28;20174;-86
2023/12/13 01:04:36;;;;;;;33.23;19.20;;;5.70;95.50;;;;;;4977455;28;20193;-87
2023/12/13 01:07:02;;;;;;;24.67;16.83;;;5.70;95.50;;;;;;4977484;28;20182;-86
2023/12/13 01:09:28;;;;;;;26.07;16.80;;;5.70;95.50;;;;;;4994766;28;20294;-86
2023/12/13 01:11:53;;;;;;;30.63;17.80;;;5.70;95.50;;;;;;4977441;28;20658;-86
2023/12/13 01:14:19;;;;;;;22.13;16.37;;;5.70;95.50;;;;;;4977420;28;20174;-86
2023/12/13 01:16:44;;;;;;;26.90;18.07;;;5.70;95.50;;;;;;4977709;28;20231;-86
2023/12/13 01:19:10;;;;;;;27.27;17.40;;;5.70;95.50;;;;;;4977547;28;20194;-86
2023/12/13 01:21:36;;;;;;;26.27;17.07;;;5.70;95.50;;;;;;4995014;28;20178;-86
2023/12/13 01:24:02;;;;;;;25.07;16.57;;;5.70;95.60;;;;;;4977536;28;20182;-86
2023/12/13 01:26:28;;;;;;;22.27;16.20;;;5.70;95.50;;;;;;4977208;28;20188;-86
2023/12/13 01:28:54;;;;;;;27.17;17.23;;;5.70;95.50;;;;;;4994198;28;20217;-87
2023/12/13 01:31:19;;;;;;;25.93;17.47;;;5.60;95.50;;;;;;4976401;28;20217;-87
2023/12/13 01:33:45;;;;;;;27.60;20.50;;;5.70;95.50;;;;;;4993712;28;20174;-86
2023/12/13 01:36:11;;;;;;;26.37;19.60;;;5.60;95.50;;;;;;4993716;28;20213;-86
2023/12/13 01:38:36;;;;;;;27.60;19.87;;;5.60;95.60;;;;;;4993714;28;20230;-87
2023/12/13 01:41:03;;;;;;;25.57;19.43;;;5.60;95.60;;;;;;4976164;28;20189;-87
2023/12/13 01:43:29;;;;;;;26.07;19.00;;;5.60;95.60;;;;;;4976071;28;20658;-87
2023/12/13 01:46:06;;;;;;;22.37;17.97;;;5.60;95.60;;;;;;4977035;28;20235;-86
2023/12/13 01:48:31;;;;;;;26.33;18.87;;;5.60;95.60;;;;;;4997337;28;20201;-87
2023/12/13 01:50:57;;;;;;;22.50;18.10;;;5.60;95.60;;;;;;4980046;28;20592;-86
2023/12/13 01:53:25;;;;;;;26.23;17.17;;;5.60;95.60;;;;;;4980853;28;20201;-87
2023/12/13 01:55:52;;;;;;;22.67;17.87;;;5.60;95.60;;;;;;4980307;28;20182;-87
2023/12/13 01:58:19;;;;;;;18.73;15.93;;;5.60;95.60;;;;;;4997742;28;20650;-87
2023/12/13 02:00:45;;;;;;;19.37;16.20;;;5.60;95.60;;;;;;4997212;28;20186;-87
2023/12/13 02:03:11;;;;;;;19.23;15.47;;;5.60;95.50;;;;;;4979844;28;20182;-86
2023/12/13 02:05:38;;;;;;;19.03;16.70;;;5.60;95.50;;;;;;4979874;28;20320;-86
2023/12/13 02:08:04;;;;;;;19.13;16.23;;;5.60;95.50;;;;;;4979542;28;20217;-86
2023/12/13 02:10:30;;;;;;;17.70;15.77;;;5.50;95.50;;;;;;4979654;28;20198;-87
2023/12/13 02:12:55;;;;;;;18.40;15.23;;;5.50;95.50;;;;;;4979708;28;20645;-86
2023/12/13 02:15:22;;;;;;;17.90;15.30;;;5.60;95.50;;;;;;4980747;28;20229;-86
2023/12/13 02:17:52;;;;;;;15.73;13.93;;;5.60;95.50;;;;;;4979799;28;20178;-86
2023/12/13 02:20:18;;;;;;;15.23;13.73;;;5.50;95.50;;;;;;4996973;28;20701;-85
2023/12/13 02:22:44;;;;;;;14.80;10.07;;;5.50;95.50;;;;;;4996898;28;20206;-86
2023/12/13 02:25:15;;;;;;;13.70;10.40;;;5.50;95.50;;;;;;4997083;28;20189;-87
2023/12/13 02:27:44;;;;;;;16.10;13.43;;;5.50;95.40;;;;;;4979501;28;20285;-85
2023/12/13 02:30:10;;;;;;;16.27;14.53;;;5.50;95.40;;;;;;4979165;28;20198;-86
2023/12/13 02:32:36;;;;;;;11.10;9.90;;;5.50;95.40;;;;;;4995490;28;20282;-86
2023/12/13 02:35:06;;;;;;;12.47;10.03;;;5.50;95.40;;;;;;4995904;28;20204;-86
2023/12/13 02:37:31;;;;;;;10.63;9.37;;;5.50;95.40;;;;;;4979339;28;20192;-86
2023/12/13 02:39:58;;;;;;;15.00;13.50;;;5.50;95.30;;;;;;4998215;28;20186;-86
2023/12/13 02:42:24;;;;;;;16.03;14.47;;;5.50;95.30;;;;;;4998659;28;20177;-86
2023/12/13 02:44:50;;;;;;;10.13;9.00;;;5.50;95.30;;;;;;4981070;28;20178;-85
2023/12/13 02:47:16;;;;;;;12.07;9.17;;;5.40;95.30;;;;;;4981137;28;20232;-86
2023/12/13 02:49:42;;;;;;;10.37;8.83;;;5.50;95.30;;;;;;4998785;28;20205;-85
2023/12/13 02:52:07;;;;;;;9.90;8.63;;;5.50;95.30;;;;;;4998531;28;20666;-86
2023/12/13 02:54:33;;;;;;;10.33;9.17;;;5.40;95.30;;;;;;4997531;28;20178;-85
2023/12/13 02:56:58;;;;;;;11.03;8.20;;;5.40;95.20;;;;;;4997108;28;20240;-87
2023/12/13 02:59:24;;;;;;;9.63;8.30;;;5.40;95.20;;;;;;4997608;28;20802;-86
2023/12/13 03:01:49;;;;;;;9.90;9.00;;;5.40;95.10;;;;;;4997491;28;20182;-86
2023/12/13 03:04:15;;;;;;;10.63;8.60;;;5.40;95.20;;;;;;4997611;28;20185;-86
2023/12/13 03:06:40;;;;;;;10.03;7.83;;;5.30;95.20;;;;;;4998310;28;20644;-85
2023/12/13 03:09:06;;;;;;;10.40;8.33;;;5.30;95.20;;;;;;4997808;28;20220;-85
2023/12/13 03:11:31;;;;;;;11.23;8.37;;;5.30;95.30;;;;;;4997014;28;20269;-85
2023/12/13 03:13:57;;;;;;;8.80;7.90;;;5.30;95.40;;;;;;4998287;28;20178;-85
2023/12/13 03:16:24;;;;;;;8.63;7.73;;;5.30;95.40;;;;;;4997551;28;20591;-86
2023/12/13 03:18:49;;;;;;;8.87;7.80;;;5.30;95.40;;;;;;4997048;28;20205;-87
2023/12/13 03:21:15;;;;;;;13.20;12.00;;;5.30;95.50;;;;;;4998468;28;20185;-86
2023/12/13 03:23:40;;;;;;;13.27;12.07;;;5.30;95.50;;;;;;4980496;28;20237;-85
2023/12/13 03:26:06;;;;;;;13.40;12.10;;;5.30;95.60;;;;;;4998018;28;20646;-85
2023/12/13 03:28:31;;;;;;;12.50;11.20;;;5.20;95.60;;;;;;4996462;28;20198;-86
2023/12/13 03:30:57;;;;;;;12.83;11.53;;;5.20;95.70;;;;;;4996623;28;20248;-86
2023/12/13 03:33:23;;;;;;;12.30;11.20;;;5.20;95.70;;;;;;4980560;28;20178;-86
2023/12/13 03:35:48;;;;;;;11.40;10.40;;;5.20;95.70;;;;;;4996379;28;20179;-86
2023/12/13 03:38:14;;;;;;;11.50;10.47;;;5.20;95.80;;;;;;4979851;28;20186;-87
2023/12/13 03:40:40;;;;;;;11.00;10.00;;;5.20;95.80;;;;;;4979196;28;20209;-87
2023/12/13 03:43:06;;;;;;;10.67;9.77;;;5.20;95.80;;;;;;4980051;28;20552;-87
2023/12/13 03:45:31;;;;;;;11.47;10.20;;;5.20;95.80;;;;;;4996118;28;20185;-86
2023/12/13 03:47:57;;;;;;;11.97;10.87;;;5.20;95.80;;;;;;4997504;28;20747;-86
2023/12/13 03:50:23;;;;;;;10.83;9.93;;;5.10;95.80;;;;;;4998041;28;20285;-86
2023/12/13 03:52:48;;;;;;;11.43;10.37;;;5.10;95.80;;;;;;4996567;28;20178;-86
2023/12/13 03:55:14;;;;;;;11.10;10.10;;;5.10;95.80;;;;;;4980238;28;20174;-86
2023/12/13 03:57:39;;;;;;;11.90;10.90;;;5.10;95.80;;;;;;4996195;28;20535;-86
2023/12/13 04:00:06;;;;;;;12.17;10.97;;;5.10;95.80;;;;;;4996094;28;20202;-86
2023/12/13 04:02:32;;;;;;;8.30;7.37;;;5.10;95.80;;;;;;4997423;28;20178;-85
2023/12/13 04:04:58;;;;;;;9.40;7.50;;;5.10;95.70;;;;;;4978066;28;20185;-85
2023/12/13 04:07:23;;;;;;;11.47;10.47;;;5.10;95.70;;;;;;4995271;28;20182;-85
2023/12/13 04:09:49;;;;;;;11.90;10.80;;;5.10;95.80;;;;;;4994386;28;20320;-85
2023/12/13 04:12:15;;;;;;;12.23;11.23;;;5.00;95.70;;;;;;4993835;28;20245;-85
2023/12/13 04:14:41;;;;;;;10.07;7.50;;;5.00;95.80;;;;;;4977667;28;20178;-86
2023/12/13 04:17:07;;;;;;;8.10;7.30;;;5.10;95.80;;;;;;4994168;28;20189;-86
2023/12/13 04:19:33;;;;;;;10.57;9.63;;;5.10;95.70;;;;;;4993987;28;20276;-85
2023/12/13 04:21:58;;;;;;;12.77;11.67;;;5.00;95.70;;;;;;4993789;28;20569;-85
2023/12/13 04:24:24;;;;;;;8.30;7.50;;;5.00;95.70;;;;;;4995577;28;20547;-85
2023/12/13 04:26:49;;;;;;;8.27;7.47;;;5.00;95.70;;;;;;4994952;28;20182;-85
2023/12/13 04:29:15;;;;;;;8.17;7.27;;;5.00;95.70;;;;;;4993555;28;20241;-86
2023/12/13 04:31:42;;;;;;;8.17;7.40;;;5.00;95.70;;;;;;4993793;28;20178;-85
2023/12/13 04:34:07;;;;;;;8.40;6.40;;;5.00;95.70;;;;;;4994914;28;20173;-85
2023/12/13 04:36:33;;;;;;;7.77;7.07;;;5.00;95.70;;;;;;4994170;28;20182;-85
2023/12/13 04:38:59;;;;;;;8.80;7.90;;;5.00;95.70;;;;;;4993341;28;20206;-85
2023/12/13 04:41:25;;;;;;;8.63;7.83;;;5.00;95.70;;;;;;4994468;28;20182;-85
2023/12/13 04:43:50;;;;;;;8.07;7.27;;;5.00;95.70;;;;;;4994738;28;20189;-86
2023/12/13 04:46:16;;;;;;;9.00;8.20;;;5.00;95.70;;;;;;4993476;28;20177;-85
2023/12/13 04:48:41;;;;;;;8.50;7.40;;;5.00;95.70;;;;;;4994738;28;20212;-86
2023/12/13 04:51:07;;;;;;;9.43;7.60;;;5.00;95.70;;;;;;4993316;28;20185;-85
2023/12/13 04:53:33;;;;;;;8.30;7.50;;;5.00;95.70;;;;;;4994583;28;20542;-85
2023/12/13 04:55:58;;;;;;;8.93;8.03;;;5.00;95.80;;;;;;4993372;28;20177;-87
2023/12/13 04:58:24;;;;;;;11.00;10.10;;;5.00;95.80;;;;;;4993026;28;20547;-85
2023/12/13 05:00:49;;;;;;;13.33;12.07;;;5.00;95.80;;;;;;4994387;28;20213;-86
2023/12/13 05:03:15;;;;;;;13.27;11.87;;;5.00;95.70;;;;;;4994472;28;20178;-85
2023/12/13 05:05:40;;;;;;;11.10;10.10;;;5.00;95.80;;;;;;4994472;28;20672;-85
2023/12/13 05:08:12;;;;;;;11.90;10.70;;;5.00;95.80;;;;;;4976685;28;20206;-85
2023/12/13 05:10:40;;;;;;;12.23;11.23;;;5.00;95.80;;;;;;4977103;28;20194;-85
2023/12/13 05:13:07;;;;;;;13.93;12.67;;;5.00;95.80;;;;;;4976941;28;20240;-85
2023/12/13 05:15:32;;;;;;;13.93;12.60;;;5.00;95.90;;;;;;4994032;28;20173;-88
2023/12/13 05:17:58;;;;;;;13.60;12.30;;;5.00;95.90;;;;;;4976597;28;20178;-87
2023/12/13 05:20:23;;;;;;;12.47;11.17;;;4.90;95.90;;;;;;4993206;28;20705;-85
2023/12/13 05:22:49;;;;;;;14.27;12.97;;;4.90;95.90;;;;;;4992804;28;20412;-86
2023/12/13 05:25:14;;;;;;;13.90;12.57;;;5.00;96.00;;;;;;4994315;28;20246;-86
2023/12/13 05:27:42;;;;;;;13.70;12.30;;;5.00;96.00;;;;;;4994489;28;20216;-85
2023/12/13 05:30:08;;;;;;;11.93;10.77;;;5.00;96.00;;;;;;4976287;28;20204;-86
2023/12/13 05:32:33;;;;;;;15.00;13.60;;;5.00;96.00;;;;;;4976481;28;20201;-86
2023/12/13 05:34:59;;;;;;;12.07;10.00;;;5.00;96.00;;;;;;4994113;28;20166;-85
2023/12/13 05:37:24;;;;;;;11.20;9.30;;;5.00;96.10;;;;;;4993899;28;20232;-85
2023/12/13 05:39:50;;;;;;;11.70;9.97;;;5.00;96.10;;;;;;4992326;28;20189;-85
2023/12/13 05:42:16;;;;;;;13.37;12.17;;;5.00;96.00;;;;;;4992975;28;20540;-85
2023/12/13 05:44:41;;;;;;;15.10;13.67;;;4.90;96.10;;;;;;4976867;28;20647;-85
2023/12/13 05:47:07;;;;;;;10.70;9.27;;;5.00;96.10;;;;;;4976505;28;20181;-85
2023/12/13 05:49:32;;;;;;;14.03;9.37;;;4.90;96.10;;;;;;4992318;28;20304;-85
2023/12/13 05:51:58;;;;;;;11.93;9.40;;;4.90;96.10;;;;;;4994211;28;20627;-85
2023/12/13 05:54:23;;;;;;;14.03;12.60;;;4.90;96.10;;;;;;4992746;28;20232;-85
2023/12/13 05:56:49;;;;;;;14.70;13.30;;;4.90;96.10;;;;;;4993885;28;20171;-86
2023/12/13 05:59:14;;;;;;;12.10;9.97;;;5.00;96.10;;;;;;4976772;28;20689;-85
2023/12/13 06:01:40;;;;;;;12.20;9.33;;;5.00;96.10;;;;;;4994129;28;20650;-85
2023/12/13 06:04:05;;;;;;;12.30;9.47;;;4.90;96.00;;;;;;4993772;28;20177;-85
2023/12/13 06:06:31;;;;;;;12.63;10.93;;;4.90;96.10;;;;;;4993665;28;20170;-85
2023/12/13 06:08:56;;;;;;;10.33;9.30;;;5.00;96.00;;;;;;4976339;28;20213;-85
2023/12/13 06:11:22;;;;;;;11.43;9.10;;;4.90;96.00;;;;;;4976318;28;20166;-86
2023/12/13 06:13:47;;;;;;;13.73;9.90;;;5.00;96.00;;;;;;4993795;28;20170;-85
2023/12/13 06:16:13;;;;;;;15.77;10.37;;;5.00;96.00;;;;;;4993677;28;20201;-85
2023/12/13 06:18:39;;;;;;;13.07;9.97;;;4.90;96.00;;;;;;4976032;28;20678;-85
2023/12/13 06:21:07;;;;;;;12.43;10.10;;;5.00;96.00;;;;;;4992642;28;20276;-85
2023/12/13 06:23:32;;;;;;;13.30;9.60;;;4.90;96.00;;;;;;4994281;28;20661;-85
2023/12/13 06:25:58;;;;;;;13.13;10.67;;;5.00;96.00;;;;;;4993828;28;20174;-85
2023/12/13 06:28:23;;;;;;;12.97;10.07;;;4.90;96.00;;;;;;4993747;28;20209;-85
2023/12/13 06:30:49;;;;;;;10.93;9.73;;;4.90;95.90;;;;;;4993735;28;20249;-85
2023/12/13 06:33:17;;;;;;;16.67;13.20;;;4.90;96.00;;;;;;4996877;28;20178;-85
2023/12/13 06:35:42;;;;;;;15.63;13.17;;;4.90;95.90;;;;;;4979653;28;20177;-85
2023/12/13 06:38:08;;;;;;;14.13;12.63;;;4.90;95.90;;;;;;4997044;28;20305;-85
2023/12/13 06:40:33;;;;;;;15.00;13.03;;;4.90;95.90;;;;;;4997308;28;20209;-85
2023/12/13 06:42:59;;;;;;;14.37;12.87;;;4.90;95.90;;;;;;4997187;28;20182;-85
2023/12/13 06:45:24;;;;;;;15.77;13.97;;;4.90;95.90;;;;;;4995554;28;20248;-85
2023/12/13 06:47:51;;;;;;;15.30;12.53;;;4.90;95.90;;;;;;4997709;28;20288;-85
2023/12/13 06:50:17;;;;;;;15.00;13.40;;;4.80;95.90;;;;;;4979427;28;20201;-85
2023/12/13 06:52:44;;;;;;;17.77;13.87;;;4.90;95.90;;;;;;4979533;28;20197;-86
2023/12/13 06:55:09;;;;;;;19.57;14.63;;;4.90;95.90;;;;;;4996450;28;20169;-85
2023/12/13 06:57:35;;;;;;;18.77;13.60;;;4.80;95.90;;;;;;4979304;28;20204;-85
2023/12/13 07:00:02;;;;;;;15.87;13.40;;;4.80;95.90;;;;;;4996826;28;20228;-85
2023/12/13 07:02:27;;;;;;;15.07;13.57;;;4.90;95.80;;;;;;4979234;28;20232;-85
2023/12/13 07:04:53;;;;;;;16.57;14.73;;;4.80;95.80;;;;;;4980381;28;20562;-85
2023/12/13 07:07:18;;;;;;;15.77;14.23;;;4.80;95.80;;;;;;4979143;28;20178;-85
2023/12/13 07:09:44;;;;;;;14.13;11.13;;;4.80;95.90;;;;;;4996492;28;20221;-86
2023/12/13 07:12:10;;;;;;;15.33;11.50;;;4.80;95.80;;;;;;4995374;28;20260;-85
2023/12/13 07:14:35;;;;;;;16.27;10.60;;;4.80;95.80;;;;;;4979395;28;20334;-85
2023/12/13 07:17:01;;;;;;;19.70;14.23;;;4.80;95.80;;;;;;4995229;28;20174;-85
2023/12/13 07:19:27;;;;;;;19.80;13.87;;;4.80;95.80;;;;;;4996516;28;20670;-85
2023/12/13 07:21:52;;;;;;;17.60;11.07;;;4.80;95.80;;;;;;4978983;28;20269;-85
2023/12/13 07:24:18;;;;;;;13.17;10.03;;;4.80;95.80;;;;;;4995272;28;20272;-85
2023/12/13 07:26:43;;;;;;;14.57;10.97;;;4.80;95.70;;;;;;4995230;28;20182;-86
2023/12/13 07:29:09;;;;;;;14.93;12.37;;;4.80;95.70;;;;;;4996336;28;20213;-85
2023/12/13 07:31:41;;;;;;;15.23;13.40;;;4.80;95.60;;;;;;4978807;28;20689;-85
2023/12/13 07:34:08;;;;;;;17.13;10.50;;;4.80;95.60;;;;;;4996235;28;20182;-85
2023/12/13 07:36:34;;;;;;;15.63;10.87;;;4.80;95.60;;;;;;4996254;28;20224;-85
2023/12/13 07:39:00;;;;;;;16.70;10.17;;;4.80;95.60;;;;;;4995164;28;20198;-85
2023/12/13 07:41:26;;;;;;;17.30;10.63;;;4.80;95.60;;;;;;4995941;28;20265;-85
2023/12/13 07:43:52;;;;;;;12.20;9.80;;;4.80;95.60;;;;;;4977524;28;20181;-85
2023/12/13 07:46:18;;;;;;;14.50;9.70;;;4.80;95.60;;;;;;4994477;28;20185;-85
2023/12/13 07:48:43;;;;;;;12.40;9.33;;;4.80;95.60;;;;;;4994258;28;20267;-86
2023/12/13 07:51:10;;;;;;;12.43;10.33;;;4.80;95.60;;;;;;4996096;28;20229;-85
2023/12/13 07:53:35;;;;;;;14.07;11.03;;;4.80;95.50;;;;;;4978313;28;20656;-85
2023/12/13 07:56:01;;;;;;;16.40;11.67;;;4.80;95.50;;;;;;4996049;28;20205;-85
2023/12/13 07:58:26;;;;;;;15.13;11.00;;;4.80;95.50;;;;;;4994310;28;20272;-85
2023/12/13 08:00:52;;;;;;;12.40;9.93;;;4.80;95.50;;;;;;4978334;28;20178;-85
2023/12/13 08:03:17;;;;;;;14.23;10.63;;;4.80;95.50;;;;;;4994548;28;20237;-85
2023/12/13 08:05:43;;;;;;;13.93;10.00;;;4.80;95.50;;;;;;4995721;28;20188;-85
2023/12/13 08:08:09;;;;;;;16.17;14.47;;;4.80;95.50;;;;;;4978033;28;20220;-85
2023/12/13 08:10:35;;;;;;;16.23;13.60;;;4.80;95.50;;;;;;4994428;28;20198;-85
2023/12/13 08:13:00;;;;;;;14.03;12.47;;;4.80;95.50;;;;;;4977278;28;20180;-85
2023/12/13 08:15:26;;;;;;;14.13;11.97;;;4.80;95.40;;;;;;4994948;28;20584;-85
2023/12/13 08:17:52;;;;;;;14.10;11.10;;;4.80;95.40;;;;;;4977250;28;20181;-86
2023/12/13 08:20:17;;;;;;;12.53;11.23;;;4.80;95.40;;;;;;4994484;28;20556;-85
2023/12/13 08:22:43;;;;;;;13.90;12.43;;;4.80;95.30;;;;;;4977165;28;20562;-86
2023/12/13 08:25:09;;;;;;;12.97;11.10;;;4.80;95.30;;;;;;4994722;28;20193;-85
2023/12/13 08:27:34;;;;;;;10.93;9.63;;;4.80;95.30;;;;;;4977377;28;20363;-85
2023/12/13 08:30:00;;;;;;;14.27;11.33;;;4.80;95.30;;;;;;4994151;28;20205;-85
2023/12/13 08:32:25;;;;;;;13.90;10.97;;;4.80;95.30;;;;;;4976674;28;20298;-85
2023/12/13 08:34:51;;;;;;;14.37;12.87;;;4.80;95.30;;;;;;4994210;28;20224;-85
2023/12/13 08:37:17;;;;;;;16.73;12.07;;;4.80;95.30;;;;;;4994236;28;20178;-85
2023/12/13 08:39:42;;;;;;;16.70;13.77;;;4.80;95.30;;;;;;4993929;28;20197;-85
2023/12/13 08:42:09;;;;;;;14.87;11.80;;;4.80;95.30;;;;;;4976632;28;20237;-85
2023/12/13 08:44:34;;;;;;;13.33;10.73;;;4.80;95.30;;;;;;4994246;28;20179;-86
2023/12/13 08:47:00;;;;;;;18.07;14.83;;;4.80;95.30;;;;;;4993969;28;20270;-85
2023/12/13 08:49:25;;;;;;;19.53;15.03;;;4.80;95.30;;;;;;4976353;28;20275;-85
2023/12/13 08:51:51;;;;;;;15.40;13.83;;;4.80;95.30;;;;;;4976990;28;20192;-85
2023/12/13 08:54:16;;;;;;;19.50;12.20;;;4.80;95.20;;;;;;4976933;28;20224;-85
2023/12/13 08:56:43;;;;;;;16.70;12.33;;;4.80;95.30;;;;;;4976585;28;20181;-85
2023/12/13 08:59:08;;;;;;;15.33;13.80;;;4.80;95.20;;;;;;4976639;28;20198;-85
2023/12/13 09:01:34;;;;;;;16.93;15.23;;;4.80;95.20;;;;;;4976610;28;20181;-85
2023/12/13 09:03:59;;;;;;;16.70;14.73;;;4.80;95.10;;;;;;4993041;28;20532;-85
2023/12/13 09:06:25;;;;;;;18.00;11.53;;;4.80;95.10;;;;;;4976701;28;20531;-85
2023/12/13 09:08:51;;;;;;;19.67;13.37;;;4.80;95.20;;;;;;4958429;28;1048214;-85
2023/12/13 09:11:16;;;;;;;17.20;15.37;;;4.80;95.20;;;;;;4994850;28;20200;-85
2023/12/13 09:13:42;;;;;;;17.77;14.80;;;4.80;95.20;;;;;;4994807;28;20665;-85
2023/12/13 09:16:07;;;;;;;19.57;16.37;;;4.80;95.10;;;;;;4994425;28;20243;-85
2023/12/13 09:18:33;;;;;;;14.13;11.50;;;4.80;95.10;;;;;;4994302;28;20186;-85
2023/12/13 09:20:59;;;;;;;16.90;12.53;;;4.80;95.00;;;;;;4994249;28;20186;-85
2023/12/13 09:23:25;;;;;;;15.87;13.97;;;4.90;94.90;;;;;;4994715;28;20176;-85
2023/12/13 09:25:52;;;;;;;17.53;15.67;;;4.80;94.90;;;;;;4977239;28;20174;-85
2023/12/13 09:28:18;;;;;;;20.77;16.07;;;4.80;94.90;;;;;;4995057;28;20209;-85
2023/12/13 09:30:44;;;;;;;19.13;13.63;;;4.80;94.80;;;;;;4977317;28;20178;-87
2023/12/13 09:33:11;;;;;;;15.73;12.73;;;4.80;94.80;;;;;;4995340;28;20630;-85
2023/12/13 09:35:37;;;;;;;18.63;16.70;;;4.90;94.80;;;;;;4977126;28;20178;-87
2023/12/13 09:38:04;;;;;;;19.50;15.50;;;4.90;94.80;;;;;;4976830;28;20230;-86
2023/12/13 09:40:30;;;;;;;16.00;12.17;;;4.80;94.70;;;;;;4976305;28;20263;-85
2023/12/13 09:42:56;;;;;;;18.83;13.03;;;4.90;94.70;;;;;;4977234;28;20182;-85
2023/12/13 09:45:22;;;;;;;16.60;11.07;;;4.90;94.70;;;;;;4977235;28;20333;-85
2023/12/13 09:47:49;;;;;;;15.83;12.40;;;4.90;94.60;;;;;;4977432;28;20221;-85
2023/12/13 09:50:20;;;;;;;13.47;12.07;;;4.90;94.60;;;;;;4977026;28;20216;-85
2023/12/13 09:52:47;;;;;;;21.83;12.97;;;4.90;94.60;;;;;;4994948;28;20261;-86
2023/12/13 09:55:15;;;;;;;17.63;12.97;;;4.90;94.50;;;;;;4994903;28;20206;-85
2023/12/13 09:57:40;;;;;;;17.73;13.63;;;4.90;94.40;;;;;;4977748;28;20631;-86
2023/12/13 10:00:06;;;;;;;17.57;11.70;;;4.80;94.40;;;;;;4994558;28;20305;-85
2023/12/13 10:02:32;;;;;;;17.27;12.13;;;4.80;94.40;;;;;;4994713;28;20189;-85
2023/12/13 10:04:59;;;;;;;15.80;12.53;;;4.80;94.20;;;;;;4977233;28;20179;-85
2023/12/13 10:07:27;;;;;;;16.43;12.27;;;4.90;94.20;;;;;;4979502;28;20185;-86
2023/12/13 10:09:55;;;;;;;16.70;11.03;;;4.90;94.20;;;;;;4998023;28;20777;-86
2023/12/13 10:12:21;;;;;;;17.40;11.67;;;4.90;94.20;;;;;;4980414;28;20209;-85
2023/12/13 10:14:46;;;;;;;18.40;15.67;;;4.80;94.10;;;;;;4997845;28;20550;-86
2023/12/13 10:17:12;;;;;;;19.43;15.30;;;4.90;94.20;;;;;;4998446;28;20229;-85
2023/12/13 10:19:37;;;;;;;18.37;16.03;;;4.80;94.10;;;;;;4998064;28;20193;-85
2023/12/13 10:22:08;;;;;;;19.77;14.90;;;4.90;94.10;;;;;;4997693;28;20179;-87
2023/12/13 10:24:34;;;;;;;17.00;15.23;;;4.90;94.10;;;;;;4997238;28;20177;-86
2023/12/13 10:26:59;;;;;;;17.70;15.63;;;4.80;94.10;;;;;;4996896;28;20178;-86
2023/12/13 10:29:27;;;;;;;17.40;15.53;;;4.90;94.10;;;;;;4996863;28;20217;-84
2023/12/13 10:31:53;;;;;;;18.37;15.67;;;4.90;94.20;;;;;;4980216;28;20201;-84
2023/12/13 10:34:18;;;;;;;16.60;14.73;;;4.90;94.20;;;;;;4997325;28;20182;-85
2023/12/13 10:36:45;;;;;;;19.67;16.27;;;4.90;94.20;;;;;;4997668;28;20202;-85
2023/12/13 10:39:15;;;;;;;16.73;15.00;;;4.90;94.20;;;;;;4980082;28;20216;-85
2023/12/13 10:41:44;;;;;;;15.27;13.80;;;4.90;94.20;;;;;;4980655;28;20174;-85
2023/12/13 10:44:15;;;;;;;15.30;13.67;;;4.90;94.20;;;;;;4979861;28;20654;-85
2023/12/13 10:46:46;;;;;;;17.70;15.87;;;4.80;94.10;;;;;;4996926;28;20162;-89
2023/12/13 10:49:16;;;;;;;18.30;15.93;;;4.90;94.10;;;;;;4979469;28;20260;-85
2023/12/13 10:51:43;;;;;;;13.23;10.93;;;4.90;94.30;;;;;;4979490;28;20180;-85
2023/12/13 10:54:12;;;;;;;17.23;11.33;;;4.90;94.30;;;;;;4997372;28;20177;-85
2023/12/13 10:56:38;;;;;;;13.27;10.17;;;4.80;94.30;;;;;;4980125;28;20185;-85
2023/12/13 10:59:04;;;;;;;16.80;14.93;;;4.80;94.30;;;;;;4979419;28;20204;-84
2023/12/13 11:01:31;;;;;;;14.13;12.63;;;4.80;94.40;;;;;;4997170;28;20182;-86
2023/12/13 11:04:12;;;;;;;13.67;11.07;;;4.80;94.40;;;;;;4979248;28;20186;-85
2023/12/13 11:06:38;;;;;;;13.87;10.83;;;4.80;94.50;;;;;;4979513;28;20189;-85
2023/12/13 11:09:18;;;;;;;14.20;12.13;;;4.80;94.40;;;;;;4978921;28;20571;-85
2023/12/13 11:11:44;;;;;;;14.43;12.90;;;4.80;94.30;;;;;;4979610;28;20192;-85
2023/12/13 11:14:11;;;;;;;15.27;13.67;;;4.80;94.30;;;;;;4995488;28;20196;-85
2023/12/13 11:16:42;;;;;;;14.37;10.37;;;4.80;94.40;;;;;;4979262;28;20189;-85
2023/12/13 11:19:13;;;;;;;9.87;8.10;;;4.80;94.40;;;;;;4977687;28;20202;-85
2023/12/13 11:21:40;;;;;;;12.63;9.30;;;4.80;94.50;;;;;;4978916;28;20273;-85
2023/12/13 11:24:13;;;;;;;11.00;8.80;;;4.80;94.50;;;;;;4996367;28;20177;-86
2023/12/13 11:26:42;;;;;;;10.60;9.50;;;4.80;94.50;;;;;;4979017;28;20192;-85
2023/12/13 11:29:23;;;;;;;10.17;8.80;;;4.70;94.40;;;;;;4978836;28;20209;-85
2023/12/13 11:31:49;;;;;;;9.43;7.70;;;4.80;94.50;;;;;;4978621;28;20185;-86
2023/12/13 11:34:16;;;;;;;10.43;8.40;;;4.80;94.40;;;;;;4978765;28;20181;-85
2023/12/13 11:36:42;;;;;;;10.03;8.77;;;4.80;94.30;;;;;;4995237;28;20184;-85
2023/12/13 11:39:08;;;;;;;9.23;7.87;;;4.80;94.40;;;;;;4978975;28;20197;-86
2023/12/13 11:41:35;;;;;;;8.13;7.33;;;4.80;94.40;;;;;;4996251;28;20714;-86
2023/12/13 11:44:02;;;;;;;9.10;8.07;;;4.80;94.30;;;;;;4996347;28;20185;-85
2023/12/13 11:46:29;;;;;;;8.23;7.43;;;4.80;94.20;;;;;;4996035;28;20178;-86
2023/12/13 11:48:55;;;;;;;9.23;8.30;;;4.80;94.20;;;;;;4994309;28;20706;-85
2023/12/13 11:51:20;;;;;;;8.90;8.00;;;4.80;94.30;;;;;;4995984;28;20174;-86
2023/12/13 11:53:48;;;;;;;9.43;8.53;;;4.80;94.30;;;;;;4994529;28;20182;-86
2023/12/13 11:56:13;;;;;;;11.87;10.77;;;4.80;94.30;;;;;;4995820;28;20174;-88
2023/12/13 11:58:39;;;;;;;12.07;11.03;;;4.90;94.30;;;;;;4978167;28;20201;-87
2023/12/13 12:01:04;;;;;;;11.43;10.50;;;4.80;94.30;;;;;;4978244;28;20269;-88
2023/12/13 12:03:30;;;;;;;12.13;10.97;;;4.90;94.40;;;;;;4995608;28;20185;-85
2023/12/13 12:05:55;;;;;;;11.27;9.97;;;4.80;94.20;;;;;;4995851;28;20554;-85
2023/12/13 12:08:24;;;;;;;11.87;10.87;;;4.80;94.20;;;;;;4994339;28;20213;-88
2023/12/13 12:10:52;;;;;;;9.87;9.00;;;4.80;94.10;;;;;;4995846;28;20178;-86
2023/12/13 12:13:19;;;;;;;11.20;10.30;;;4.90;94.20;;;;;;4995618;28;20634;-85
2023/12/13 12:15:45;;;;;;;10.93;10.03;;;4.80;94.10;;;;;;4995364;28;20181;-85
2023/12/13 12:18:14;;;;;;;11.40;10.37;;;4.80;94.10;;;;;;4978199;28;20185;-86
2023/12/13 12:20:41;;;;;;;10.93;9.93;;;4.80;94.10;;;;;;4977767;28;20212;-86
2023/12/13 12:23:08;;;;;;;12.17;11.20;;;4.80;94.00;;;;;;4994316;28;20264;-86
2023/12/13 12:25:34;;;;;;;11.70;10.80;;;4.80;94.10;;;;;;4995705;28;20181;-86
2023/12/13 12:28:00;;;;;;;8.20;7.40;;;4.80;94.20;;;;;;4977962;28;20210;-86
2023/12/13 12:30:25;;;;;;;10.23;6.77;;;4.80;94.20;;;;;;4994741;28;20194;-85
2023/12/13 12:32:51;;;;;;;10.43;9.53;;;4.80;94.10;;;;;;4993762;28;20247;-88
2023/12/13 12:35:17;;;;;;;12.47;10.00;;;4.90;94.20;;;;;;4993840;28;20185;-87